Terminal Aerodrome Forecast
Issued by NWS Wilmington, NC

Home | Current Version | Previous Version | Text Only | Print | Product List | Glossary On
Versions: 1 2 3 4 5 6 7 8 9 10 11 12 13 14 15 16 17 18 19 20 21
087
FTUS42 KILM 071122
TAFFLO
TAF
KFLO 071122Z 0712/0812 33005KT P6SM OVC008
      TEMPO 0712/0714 6SM BR
     FM071400 02007KT P6SM FEW007 SCT015
     FM072100 VRB03KT P6SM FEW250
     FM080300 VRB01KT P6SM SCT050 OVC100=

USA.gov is the U.S. government's official web portal to all federal, state and local government web resources and services.